createdAt,value
2018-12-18T00:02:58.106Z,6.20
2018-12-18T00:08:05.209Z,6.20
2018-12-18T00:13:08.800Z,6.30
2018-12-18T00:18:12.338Z,6.20
2018-12-18T00:23:16.123Z,6.30
2018-12-18T00:28:19.664Z,6.20
2018-12-18T00:33:23.143Z,6.20
2018-12-18T00:38:26.961Z,6.30
2018-12-18T00:43:30.520Z,6.30
2018-12-18T00:48:34.021Z,6.30
2018-12-18T00:53:37.407Z,6.30
2018-12-18T00:58:41.160Z,6.40
2018-12-18T01:03:44.626Z,6.40
2018-12-18T01:08:48.319Z,6.50
2018-12-18T01:13:51.934Z,6.50
2018-12-18T01:18:55.619Z,6.40
2018-12-18T01:23:59.169Z,6.40
2018-12-18T01:29:02.643Z,6.40
2018-12-18T01:34:06.138Z,6.40
2018-12-18T01:39:09.618Z,6.40
2018-12-18T01:44:13.160Z,6.40
2018-12-18T01:49:16.707Z,6.50
2018-12-18T01:54:20.435Z,6.50
2018-12-18T01:59:23.860Z,6.50
2018-12-18T02:04:28.338Z,6.60
2018-12-18T02:09:34.259Z,6.60
2018-12-18T02:14:37.901Z,6.50
2018-12-18T02:19:41.716Z,6.50
2018-12-18T02:24:45.326Z,6.50
2018-12-18T02:29:48.766Z,6.50
2018-12-18T02:34:52.280Z,6.50
2018-12-18T02:39:55.787Z,6.50
2018-12-18T02:44:59.242Z,6.50
2018-12-18T02:50:03.121Z,6.50
2018-12-18T02:55:06.783Z,6.50
2018-12-18T03:00:10.413Z,6.50
2018-12-18T03:05:14.291Z,6.50
2018-12-18T03:10:17.708Z,6.50
2018-12-18T03:15:21.447Z,6.50
2018-12-18T03:20:26.009Z,6.50
2018-12-18T03:25:29.640Z,6.50
2018-12-18T03:30:33.125Z,6.60
2018-12-18T03:35:36.709Z,6.60
2018-12-18T03:40:40.258Z,6.70
2018-12-18T03:45:43.775Z,6.70
2018-12-18T03:50:47.277Z,6.70
2018-12-18T03:55:50.650Z,6.70
2018-12-18T04:00:54.152Z,6.70
2018-12-18T04:05:57.575Z,6.70
2018-12-18T04:11:01.298Z,6.70
2018-12-18T04:16:05.027Z,6.60
2018-12-18T04:21:08.492Z,6.70
2018-12-18T04:26:11.906Z,6.80
2018-12-18T04:31:15.301Z,6.70
2018-12-18T04:36:18.844Z,6.70
2018-12-18T04:41:22.289Z,6.60
2018-12-18T04:46:25.812Z,6.60
2018-12-18T04:51:29.458Z,6.60
2018-12-18T04:56:32.947Z,6.60
2018-12-18T05:01:37.579Z,6.60
2018-12-18T05:06:41.011Z,6.60
2018-12-18T05:11:44.529Z,6.60
2018-12-18T05:16:48.251Z,6.50
2018-12-18T05:21:51.685Z,6.50
2018-12-18T05:26:55.170Z,6.50
2018-12-18T05:31:58.606Z,6.50
2018-12-18T05:37:02.256Z,6.50
2018-12-18T05:42:06.231Z,6.40
2018-12-18T05:47:09.686Z,6.40
2018-12-18T05:52:16.665Z,6.40
2018-12-18T05:57:20.304Z,6.40
2018-12-18T06:02:23.806Z,6.40
2018-12-18T06:07:27.277Z,6.40
2018-12-18T06:12:30.821Z,6.40
2018-12-18T06:17:34.442Z,6.40
2018-12-18T06:22:38.219Z,6.40
2018-12-18T06:27:41.907Z,6.40
2018-12-18T06:32:45.680Z,6.40
2018-12-18T06:37:49.436Z,6.40
2018-12-18T06:42:53.371Z,6.40
2018-12-18T06:47:57.277Z,6.40
2018-12-18T06:53:01.074Z,6.30
2018-12-18T06:58:04.906Z,6.30
2018-12-18T07:03:08.363Z,6.30
2018-12-18T07:08:11.933Z,6.30
2018-12-18T07:13:15.508Z,6.30
2018-12-18T07:18:19.022Z,6.30
2018-12-18T07:23:22.614Z,6.30
2018-12-18T07:28:26.083Z,6.40
2018-12-18T07:33:29.611Z,6.50
2018-12-18T07:38:33.028Z,6.70
2018-12-18T07:43:36.603Z,6.60
2018-12-18T07:48:40.096Z,6.60
2018-12-18T07:53:43.836Z,6.60
2018-12-18T07:58:47.696Z,6.50
2018-12-18T08:03:51.563Z,6.40
2018-12-18T08:08:55.068Z,6.40
2018-12-18T08:13:58.762Z,6.40
2018-12-18T08:19:02.195Z,6.40
2018-12-18T08:24:05.756Z,6.40
2018-12-18T08:29:09.482Z,6.50
2018-12-18T08:34:13.020Z,6.50
2018-12-18T08:39:16.776Z,6.60
2018-12-18T08:44:20.398Z,6.60
2018-12-18T08:49:24.122Z,6.60
2018-12-18T08:54:28.145Z,6.70
2018-12-18T08:59:31.887Z,6.70
2018-12-18T09:04:35.388Z,6.70
2018-12-18T09:09:39.212Z,6.70
2018-12-18T09:20:01.215Z,6.70
2018-12-18T09:25:05.947Z,6.70
2018-12-18T09:30:11.068Z,6.80
2018-12-18T09:35:14.482Z,6.90
2018-12-18T09:40:21.265Z,6.90
2018-12-18T09:45:24.739Z,7.00
2018-12-18T09:50:28.290Z,7.20
2018-12-18T09:55:31.775Z,7.20
2018-12-18T10:00:35.333Z,7.30
2018-12-18T10:05:38.867Z,7.60
2018-12-18T10:10:42.342Z,7.70
2018-12-18T10:15:53.055Z,7.80
2018-12-18T10:20:56.645Z,7.90
2018-12-18T10:26:00.313Z,7.90
2018-12-18T10:31:03.887Z,7.80
2018-12-18T10:36:07.377Z,7.80
2018-12-18T10:41:11.025Z,7.70
2018-12-18T10:46:14.711Z,7.60
2018-12-18T10:51:18.366Z,7.60
2018-12-18T10:56:21.919Z,7.60
2018-12-18T11:01:31.269Z,7.60
2018-12-18T11:06:34.726Z,7.60
2018-12-18T11:11:38.362Z,7.60
2018-12-18T11:16:41.925Z,7.60
2018-12-18T11:21:46.041Z,7.70
2018-12-18T11:26:49.711Z,7.80
2018-12-18T11:31:53.384Z,7.80
2018-12-18T11:36:56.988Z,7.80
2018-12-18T11:42:00.714Z,7.80
2018-12-18T11:47:04.395Z,7.90
2018-12-18T11:52:09.042Z,7.90
2018-12-18T11:57:12.822Z,7.80
2018-12-18T12:02:16.482Z,7.80
2018-12-18T12:07:21.011Z,7.80
2018-12-18T12:12:24.477Z,7.80
2018-12-18T12:17:28.314Z,7.80
2018-12-18T12:22:31.803Z,7.90
2018-12-18T12:27:40.973Z,7.90
2018-12-18T12:32:44.384Z,7.90
2018-12-18T12:37:47.940Z,8.00
2018-12-18T12:42:51.395Z,7.90
2018-12-18T12:47:58.859Z,8.00
2018-12-18T12:53:02.599Z,8.10
2018-12-18T12:58:06.124Z,8.30
2018-12-18T13:03:09.607Z,8.70
2018-12-18T13:08:13.054Z,8.70
2018-12-18T13:13:16.545Z,8.70
2018-12-18T13:18:20.163Z,8.80
2018-12-18T13:23:23.778Z,8.80
2018-12-18T13:28:27.364Z,8.70
2018-12-18T13:33:30.982Z,8.90
2018-12-18T13:38:34.402Z,8.90
2018-12-18T13:43:37.898Z,8.70
2018-12-18T13:48:41.351Z,8.80
2018-12-18T13:53:44.851Z,8.70
2018-12-18T13:58:48.411Z,8.80
2018-12-18T14:03:52.031Z,8.90
2018-12-18T14:08:55.485Z,8.80
2018-12-18T14:13:59.142Z,8.70
2018-12-18T14:19:02.555Z,8.60
2018-12-18T14:24:06.064Z,8.40
2018-12-18T14:29:10.372Z,8.40
2018-12-18T14:34:14.044Z,8.70
2018-12-18T14:39:17.974Z,8.60
2018-12-18T14:44:21.535Z,8.40
2018-12-18T14:49:24.918Z,8.40
2018-12-18T14:59:42.252Z,8.30
2018-12-18T15:04:46.000Z,8.40
2018-12-18T15:09:53.141Z,8.50
2018-12-18T15:14:57.682Z,8.50
2018-12-18T15:20:01.260Z,8.50
2018-12-18T15:25:05.973Z,8.60
2018-12-18T15:30:10.415Z,8.60
2018-12-18T15:35:14.225Z,8.70
2018-12-18T15:40:17.641Z,8.70
2018-12-18T15:45:21.196Z,8.60
2018-12-18T15:50:25.030Z,8.50
2018-12-18T15:55:28.441Z,8.20
2018-12-18T16:00:31.807Z,8.20
2018-12-18T16:05:35.311Z,8.10
2018-12-18T16:10:38.874Z,8.00
2018-12-18T16:15:42.411Z,8.00
2018-12-18T16:20:46.352Z,7.80
2018-12-18T16:25:49.861Z,7.40
2018-12-18T16:30:53.517Z,7.20
2018-12-18T16:35:57.158Z,7.00
2018-12-18T16:41:00.620Z,6.90
2018-12-18T16:46:04.549Z,6.90
2018-12-18T16:51:08.003Z,6.80
2018-12-18T16:56:11.601Z,6.70
2018-12-18T17:01:15.087Z,6.80
2018-12-18T17:06:18.642Z,6.70
2018-12-18T17:11:22.367Z,6.70
2018-12-18T17:16:25.829Z,6.50
2018-12-18T17:21:29.234Z,6.40
2018-12-18T17:26:32.705Z,6.60
2018-12-18T17:31:36.233Z,6.40
2018-12-18T17:36:39.691Z,6.30
2018-12-18T17:41:43.136Z,6.20
2018-12-18T17:46:46.504Z,6.10
2018-12-18T17:51:49.900Z,6.10
2018-12-18T17:56:53.303Z,6.00
2018-12-18T18:01:56.872Z,5.90
2018-12-18T18:07:00.329Z,5.90
2018-12-18T18:12:03.828Z,5.80
2018-12-18T18:17:07.204Z,5.70
2018-12-18T18:22:10.824Z,5.70
2018-12-18T18:27:14.312Z,5.70
2018-12-18T18:32:17.834Z,5.60
2018-12-18T18:37:21.396Z,5.60
2018-12-18T18:42:24.883Z,5.50
2018-12-18T18:47:28.443Z,5.50
2018-12-18T18:52:31.903Z,5.40
2018-12-18T18:57:35.337Z,5.30
2018-12-18T19:02:38.751Z,5.30
2018-12-18T19:07:42.276Z,5.20
2018-12-18T19:12:46.284Z,5.10
2018-12-18T19:17:49.983Z,5.10
2018-12-18T19:22:53.471Z,5.10
2018-12-18T19:27:57.155Z,5.00
2018-12-18T19:33:00.609Z,5.00
2018-12-18T19:38:04.395Z,4.90
2018-12-18T19:43:08.314Z,4.80
2018-12-18T19:48:13.019Z,4.80
2018-12-18T19:53:16.500Z,4.70
2018-12-18T19:58:20.002Z,4.60
2018-12-18T20:03:23.491Z,4.70
2018-12-18T20:08:27.093Z,4.60
2018-12-18T20:13:31.661Z,4.60
2018-12-18T20:18:35.202Z,4.60
2018-12-18T20:23:38.700Z,4.70
2018-12-18T20:28:43.468Z,4.70
2018-12-18T20:33:47.357Z,4.60
2018-12-18T20:38:51.007Z,4.60
2018-12-18T20:43:54.592Z,4.50
2018-12-18T20:48:58.218Z,4.50
2018-12-18T20:54:01.690Z,4.50
2018-12-18T20:59:05.469Z,4.50
2018-12-18T21:04:08.990Z,4.50
2018-12-18T21:09:12.479Z,4.50
2018-12-18T21:14:15.925Z,4.40
2018-12-18T21:19:19.387Z,4.40
2018-12-18T21:29:39.444Z,4.30
2018-12-18T21:34:44.052Z,4.20
2018-12-18T21:39:47.853Z,4.10
2018-12-18T21:44:51.807Z,4.10
2018-12-18T21:49:55.282Z,4.40
2018-12-18T21:55:00.085Z,4.50
2018-12-18T22:00:05.713Z,4.50
2018-12-18T22:05:09.306Z,4.30
2018-12-18T22:10:13.013Z,4.10
2018-12-18T22:15:16.562Z,4.00
2018-12-18T22:20:20.325Z,4.00
2018-12-18T22:25:23.790Z,4.00
2018-12-18T22:30:27.767Z,4.10
2018-12-18T22:35:31.207Z,4.10
2018-12-18T22:40:34.962Z,4.10
2018-12-18T22:45:38.372Z,4.00
2018-12-18T22:50:41.856Z,4.00
2018-12-18T22:55:45.444Z,4.00
2018-12-18T23:00:55.535Z,4.00
2018-12-18T23:05:59.287Z,4.00
2018-12-18T23:11:03.011Z,4.00
2018-12-18T23:16:06.516Z,4.00
2018-12-18T23:21:09.976Z,3.90
2018-12-18T23:26:13.595Z,3.80
2018-12-18T23:31:17.115Z,3.80
2018-12-18T23:36:20.698Z,3.80
2018-12-18T23:41:25.402Z,3.80
2018-12-18T23:46:29.096Z,3.90
2018-12-18T23:51:32.665Z,3.90
2018-12-18T23:56:36.117Z,3.80
